Terminal Aerodrome Forecast
Issued by NWS

Current Version | Previous Version | Text Only | Print | Product List | Glossary On
Versions: 1 2 3 4 5 6 7 8 9 10 11 12
000
FTUS44 KSJT 180520
TAFBBD
TAF
KBBD 180520Z 1806/1906 VRB03KT P6SM BKN250
     FM180900 12003KT 2SM BR OVC004
     FM181200 09002KT 1/2SM FG OVC001
     FM181600 16006KT 4SM BR OVC004
     FM181800 17005KT P6SM OVC007
     FM190000 13004KT P6SM OVC015
      AMD NOT SKED=

USA.gov is the U.S. government's official web portal to all federal, state and local government web resources and services.